Observations for CAMBRIDGE, United Kingdom (EGSC)

EGSC 201650Z 25016KT 9999 SCT040 24/13 Q1017
EGSC 201620Z 26018KT 9999 SCT040 24/14 Q1017
EGSC 201550Z 25016KT 9999 SCT040 24/14 Q1017
EGSC 201520Z 25017KT 9999 SCT036 SCT045 25/14 Q1017 
EGSC 201450Z 25018KT 9999 SCT032 BKN045 24/15 Q1018 
EGSC 201420Z 26016KT 230V290 9999 SCT032 BKN045 23/15 Q1018 
EGSC 201350Z 26016KT 9999 BKN030 BKN040 24/15 Q1018 
EGSC 201320Z 25015KT 9999 BKN030 24/15 Q1018
EGSC 201250Z 24015KT 210V270 9999 SCT028 SCT038 24/15 Q1018 
EGSC 201220Z 23015KT 170V260 9999 SCT028 SCT038 24/15 Q1018 
EGSC 201150Z 24017KT 9999 SCT028 24/15 Q1018
EGSC 201120Z 24014KT 9999 SCT022 24/15 Q1018
EGSC 201050Z 23013KT 9999 BKN022 22/15 Q1019
EGSC 201020Z 23016KT 9999 BKN020 22/14 Q1019
EGSC 200950Z 23017KT 9999 BKN018 21/15 Q1019
EGSC 200920Z 22012KT 9999 BKN016 21/15 Q1019
EGSC 200850Z 24013KT 210V270 9999 BKN016 20/15 Q1019
EGSC 200820Z 23012KT 9999 BKN013 19/14 Q1019
EGSC 200750Z 23009KT 9999 BKN013 BKN018 19/15 Q1019 
EGSC 200720Z 21009KT 9999 SCT011 BKN015 18/15 Q1019 
EGSC 200650Z 20009KT 9999 FEW009 BKN018 18/15 Q1019 
EGSC 191650Z 25012KT 9999 FEW040 BKN045 23/15 Q1021 
EGSC 191620Z 24014KT 9999 FEW032 SCT045 24/15 Q1021